createdAt,value
2023-02-23T00:02:19.103Z,151.18
2023-02-23T00:04:48.200Z,165.88
2023-02-23T00:07:21.739Z,161.27
2023-02-23T00:09:51.034Z,155.40
2023-02-23T00:12:21.082Z,142.20
2023-02-23T00:14:57.023Z,154.13
2023-02-23T00:17:24.835Z,165.15
2023-02-23T00:19:52.650Z,148.55
2023-02-23T00:22:20.237Z,145.98
2023-02-23T00:24:54.216Z,151.43
2023-02-23T00:27:22.034Z,144.68
2023-02-23T00:29:49.938Z,141.90
2023-02-23T00:32:21.969Z,150.60
2023-02-23T00:34:51.918Z,152.75
2023-02-23T00:37:22.070Z,150.02
2023-02-23T00:39:52.221Z,155.13
2023-02-23T00:42:20.251Z,149.77
2023-02-23T00:44:49.079Z,149.77
2023-02-23T00:47:16.631Z,147.25
2023-02-23T00:49:47.409Z,151.00
2023-02-23T00:52:15.307Z,158.20
2023-02-23T00:54:42.968Z,152.25
2023-02-23T00:57:10.843Z,151.13
2023-02-23T00:59:38.631Z,139.77
2023-02-23T01:02:06.596Z,140.90
2023-02-23T01:04:38.188Z,149.23
2023-02-23T01:07:06.934Z,148.90
2023-02-23T01:09:34.524Z,155.50
2023-02-23T01:12:07.618Z,144.38
2023-02-23T01:14:37.705Z,133.63
2023-02-23T01:17:05.581Z,150.68
2023-02-23T01:19:34.325Z,142.15
2023-02-23T01:22:09.208Z,138.40
2023-02-23T01:24:38.771Z,144.30
2023-02-23T01:27:06.456Z,138.02
2023-02-23T01:29:34.950Z,146.13
2023-02-23T01:32:04.846Z,145.73
2023-02-23T01:34:33.121Z,134.15
2023-02-23T01:37:00.816Z,141.93
2023-02-23T01:39:29.642Z,148.77
2023-02-23T01:41:57.258Z,143.35
2023-02-23T01:44:24.830Z,138.57
2023-02-23T01:46:53.437Z,163.35
2023-02-23T01:49:28.529Z,141.88
2023-02-23T01:52:04.464Z,139.57
2023-02-23T01:54:39.954Z,133.25
2023-02-23T01:57:12.120Z,138.75
2023-02-23T01:59:43.324Z,140.13
2023-02-23T02:02:13.654Z,143.20
2023-02-23T02:04:46.004Z,135.77
2023-02-23T02:07:19.134Z,136.38
2023-02-23T02:10:09.975Z,135.02
2023-02-23T02:12:44.450Z,136.65
2023-02-23T02:15:19.992Z,139.68
2023-02-23T02:18:19.519Z,142.35
2023-02-23T02:21:15.124Z,130.77
2023-02-23T02:24:00.910Z,141.90
2023-02-23T02:26:40.256Z,146.30
2023-02-23T02:29:31.450Z,143.23
2023-02-23T02:32:14.562Z,142.23
2023-02-23T02:34:51.358Z,146.52
2023-02-23T02:37:48.141Z,149.55
2023-02-23T02:40:53.588Z,153.48
2023-02-23T02:43:51.731Z,150.93
2023-02-23T02:46:28.800Z,138.60
2023-02-23T02:49:14.902Z,140.68
2023-02-23T02:52:07.103Z,146.63
2023-02-23T02:54:44.159Z,135.57
2023-02-23T02:57:13.919Z,150.40
2023-02-23T03:00:05.624Z,136.07
2023-02-23T03:02:55.837Z,142.18
2023-02-23T03:06:06.610Z,154.75
2023-02-23T03:09:23.849Z,136.52
2023-02-23T03:12:25.552Z,134.02
2023-02-23T03:15:52.854Z,147.02
2023-02-23T03:18:56.200Z,141.73
2023-02-23T03:22:07.809Z,136.40
2023-02-23T03:25:08.610Z,126.15
2023-02-23T03:28:16.663Z,132.57
2023-02-23T03:31:11.544Z,140.43
2023-02-23T03:34:27.106Z,130.55
2023-02-23T03:37:35.241Z,140.77
2023-02-23T03:40:51.259Z,144.43
2023-02-23T03:43:44.909Z,143.85
2023-02-23T03:46:33.623Z,145.02
2023-02-23T03:49:23.746Z,142.80
2023-02-23T03:52:15.758Z,135.52
2023-02-23T03:55:15.563Z,137.77
2023-02-23T03:58:18.490Z,143.80
2023-02-23T04:01:17.133Z,139.48
2023-02-23T04:04:19.438Z,129.65
2023-02-23T04:07:50.486Z,127.60
2023-02-23T04:10:50.649Z,144.27
2023-02-23T04:13:27.085Z,144.38
2023-02-23T04:16:04.577Z,138.68
2023-02-23T04:18:39.738Z,135.82
2023-02-23T04:21:10.834Z,133.55
2023-02-23T04:23:42.467Z,142.85
2023-02-23T04:26:18.952Z,136.93
2023-02-23T04:28:47.604Z,138.90
2023-02-23T04:31:29.772Z,148.25
2023-02-23T04:34:39.146Z,151.82
2023-02-23T04:37:06.882Z,158.50
2023-02-23T04:39:34.386Z,154.98
2023-02-23T04:42:14.451Z,150.75
2023-02-23T04:44:42.238Z,158.95
2023-02-23T04:47:15.542Z,144.77
2023-02-23T04:49:46.271Z,139.85
2023-02-23T04:52:26.310Z,140.63
2023-02-23T04:55:52.323Z,142.20
2023-02-23T04:58:56.870Z,155.85
2023-02-23T05:01:24.554Z,148.07
2023-02-23T05:03:57.762Z,156.93
2023-02-23T05:06:25.480Z,144.90
2023-02-23T05:08:55.556Z,141.65
2023-02-23T05:11:23.358Z,132.48
2023-02-23T05:13:54.294Z,128.00
2023-02-23T05:16:22.204Z,137.95
2023-02-23T05:19:04.692Z,140.75
2023-02-23T05:24:24.300Z,145.85
2023-02-23T05:27:09.898Z,137.35
2023-02-23T05:30:12.941Z,142.32
2023-02-23T05:33:00.727Z,144.05
2023-02-23T05:38:44.293Z,141.32
2023-02-23T05:41:24.481Z,131.13
2023-02-23T05:44:00.769Z,146.15
2023-02-23T05:49:29.041Z,149.15
2023-02-23T05:55:01.840Z,139.70
2023-02-23T05:57:45.950Z,138.98
2023-02-23T06:00:18.374Z,149.60
2023-02-23T06:02:49.143Z,159.48
2023-02-23T06:05:16.841Z,146.73
2023-02-23T06:07:44.836Z,151.45
2023-02-23T06:10:12.709Z,151.48
2023-02-23T06:12:40.285Z,148.48
2023-02-23T06:15:08.586Z,144.73
2023-02-23T06:17:36.480Z,140.80
2023-02-23T06:20:05.423Z,152.35
2023-02-23T06:22:33.102Z,141.73
2023-02-23T06:25:00.690Z,147.90
2023-02-23T06:27:28.148Z,140.48
2023-02-23T06:29:55.635Z,137.20
2023-02-23T06:32:23.359Z,155.27
2023-02-23T06:34:52.087Z,136.75
2023-02-23T06:37:19.871Z,154.55
2023-02-23T06:39:47.916Z,132.45
2023-02-23T06:42:15.580Z,142.30
2023-02-23T06:44:43.062Z,135.77
2023-02-23T06:47:11.394Z,139.73
2023-02-23T06:49:40.531Z,148.95
2023-02-23T06:52:09.667Z,150.93
2023-02-23T06:54:40.095Z,136.27
2023-02-23T06:57:08.618Z,144.10
2023-02-23T06:59:37.048Z,138.85
2023-02-23T07:02:05.846Z,139.38
2023-02-23T07:04:33.895Z,144.07
2023-02-23T07:07:09.730Z,144.07
2023-02-23T07:09:48.129Z,135.52
2023-02-23T07:12:15.833Z,134.65
2023-02-23T07:14:43.324Z,140.07
2023-02-23T07:17:12.583Z,150.43
2023-02-23T07:19:40.263Z,142.90
2023-02-23T07:22:07.869Z,140.93
2023-02-23T07:24:35.375Z,150.15
2023-02-23T07:27:03.098Z,144.25
2023-02-23T07:29:30.917Z,142.63
2023-02-23T07:31:58.519Z,153.38
2023-02-23T07:34:27.431Z,143.57
2023-02-23T07:36:54.973Z,143.40
2023-02-23T07:39:22.486Z,142.32
2023-02-23T07:41:51.199Z,149.32
2023-02-23T07:44:19.981Z,145.30
2023-02-23T07:46:47.610Z,141.15
2023-02-23T07:49:15.286Z,146.40
2023-02-23T07:51:42.708Z,153.23
2023-02-23T07:54:10.170Z,143.68
2023-02-23T07:56:37.677Z,154.15
2023-02-23T07:59:05.275Z,145.60
2023-02-23T08:01:32.867Z,152.23
2023-02-23T08:04:01.125Z,152.35
2023-02-23T08:06:29.119Z,144.27
2023-02-23T08:09:00.339Z,147.52
2023-02-23T08:11:31.066Z,148.45
2023-02-23T08:14:00.396Z,139.50
2023-02-23T08:16:32.808Z,138.90
2023-02-23T08:19:01.645Z,147.73
2023-02-23T08:24:32.222Z,148.77
2023-02-23T08:27:01.506Z,152.52
2023-02-23T08:29:29.758Z,147.00
2023-02-23T08:32:05.249Z,146.93
2023-02-23T08:34:32.852Z,147.00
2023-02-23T08:37:00.528Z,146.65
2023-02-23T08:39:30.463Z,141.65
2023-02-23T08:42:01.733Z,143.10
2023-02-23T08:44:29.309Z,153.75
2023-02-23T08:46:58.439Z,150.75
2023-02-23T08:49:26.212Z,147.10
2023-02-23T08:51:53.985Z,149.60
2023-02-23T08:54:24.236Z,151.38
2023-02-23T08:56:55.402Z,148.20
2023-02-23T08:59:24.275Z,147.63
2023-02-23T09:01:54.774Z,158.25
2023-02-23T09:04:25.556Z,160.27
2023-02-23T09:06:54.492Z,151.75
2023-02-23T09:09:25.326Z,147.52
2023-02-23T09:11:53.312Z,144.05
2023-02-23T09:14:24.832Z,151.13
2023-02-23T09:16:52.525Z,149.20
2023-02-23T09:19:22.728Z,149.75
2023-02-23T09:21:50.414Z,157.35
2023-02-23T09:24:18.676Z,147.80
2023-02-23T09:26:46.196Z,153.18
2023-02-23T09:29:14.507Z,154.48
2023-02-23T09:31:47.023Z,155.07
2023-02-23T09:34:15.461Z,143.98
2023-02-23T09:36:43.046Z,153.13
2023-02-23T09:39:11.048Z,155.40
2023-02-23T09:42:05.488Z,145.10
2023-02-23T09:45:14.767Z,166.27
2023-02-23T09:48:19.738Z,140.52
2023-02-23T09:50:54.171Z,147.68
2023-02-23T09:53:36.576Z,155.25
2023-02-23T09:56:11.502Z,154.23
2023-02-23T09:58:40.529Z,146.25
2023-02-23T10:01:27.960Z,151.98
2023-02-23T10:04:20.385Z,149.18
2023-02-23T10:07:13.705Z,152.45
2023-02-23T10:10:08.439Z,148.80
2023-02-23T10:13:02.216Z,148.60
2023-02-23T10:15:56.072Z,153.60
2023-02-23T10:18:46.193Z,150.40
2023-02-23T10:21:30.853Z,149.32
2023-02-23T10:24:11.764Z,148.70
2023-02-23T10:26:54.338Z,141.63
2023-02-23T10:29:31.863Z,151.20
2023-02-23T10:32:47.180Z,148.98
2023-02-23T10:35:17.747Z,145.57
2023-02-23T10:37:53.589Z,145.90
2023-02-23T10:40:31.372Z,143.35
2023-02-23T10:43:01.956Z,138.63
2023-02-23T10:45:34.597Z,154.05
2023-02-23T10:48:13.638Z,141.45
2023-02-23T10:50:42.855Z,173.80
2023-02-23T10:53:36.453Z,152.98
2023-02-23T10:59:01.944Z,165.25
2023-02-23T11:02:07.587Z,146.25
2023-02-23T11:09:09.580Z,151.57
2023-02-23T11:12:24.227Z,159.80
2023-02-23T11:22:52.377Z,148.55
2023-02-23T11:29:50.136Z,150.00
2023-02-23T11:59:46.245Z,148.07
2023-02-23T12:03:19.346Z,141.85
2023-02-23T12:05:53.581Z,133.65
2023-02-23T12:08:33.745Z,145.05
2023-02-23T12:11:07.645Z,140.43
2023-02-23T12:13:41.737Z,149.55
2023-02-23T12:16:44.336Z,143.48
2023-02-23T12:19:34.169Z,142.40
2023-02-23T12:22:13.336Z,144.82
2023-02-23T12:24:49.092Z,141.15
2023-02-23T12:27:22.767Z,143.40
2023-02-23T12:30:09.229Z,133.30
2023-02-23T12:36:31.872Z,140.77
2023-02-23T12:39:05.115Z,142.95
2023-02-23T12:41:41.501Z,152.63
2023-02-23T12:44:45.027Z,148.55
2023-02-23T12:47:23.010Z,142.23
2023-02-23T12:50:17.435Z,142.23
2023-02-23T12:52:58.770Z,141.97
2023-02-23T12:55:42.036Z,137.63
2023-02-23T12:58:50.725Z,145.77
2023-02-23T13:01:43.135Z,143.57
2023-02-23T13:04:26.235Z,139.85
2023-02-23T13:07:15.202Z,148.52
2023-02-23T13:10:20.179Z,132.73
2023-02-23T13:13:30.331Z,140.95
2023-02-23T13:16:04.533Z,141.48
2023-02-23T13:19:07.571Z,136.60
2023-02-23T13:22:01.951Z,140.77
2023-02-23T13:24:49.618Z,133.43
2023-02-23T13:27:36.546Z,132.50
2023-02-23T13:30:09.409Z,128.57
2023-02-23T13:32:39.433Z,133.82
2023-02-23T13:35:19.202Z,127.00
2023-02-23T13:37:59.770Z,124.90
2023-02-23T13:40:41.750Z,123.07
2023-02-23T13:43:30.205Z,125.70
2023-02-23T13:46:24.454Z,137.40
2023-02-23T13:49:16.420Z,115.72
2023-02-23T13:51:54.234Z,124.55
2023-02-23T13:54:35.934Z,133.52
2023-02-23T13:57:12.671Z,141.85
2023-02-23T13:59:48.234Z,123.57
2023-02-23T14:02:36.191Z,124.80
2023-02-23T14:05:17.544Z,120.18
2023-02-23T14:07:48.885Z,119.57
2023-02-23T14:10:26.200Z,127.25
2023-02-23T14:13:13.400Z,130.00
2023-02-23T14:15:53.740Z,132.80
2023-02-23T14:18:21.357Z,126.70
2023-02-23T14:21:05.149Z,116.13
2023-02-23T14:24:05.520Z,116.97
2023-02-23T14:26:39.114Z,123.20
2023-02-23T14:29:28.025Z,117.65
2023-02-23T14:32:10.742Z,115.13
2023-02-23T14:35:00.916Z,107.55
2023-02-23T14:37:34.160Z,104.20
2023-02-23T14:40:12.472Z,110.28
2023-02-23T14:42:41.329Z,103.93
2023-02-23T14:45:28.943Z,101.85
2023-02-23T14:48:01.733Z,105.35
2023-02-23T14:50:35.400Z,112.50
2023-02-23T14:53:06.429Z,106.53
2023-02-23T14:55:37.581Z,99.40
2023-02-23T14:58:30.446Z,102.07
2023-02-23T15:00:58.172Z,109.05
2023-02-23T15:03:25.927Z,110.72
2023-02-23T15:05:57.504Z,107.60
2023-02-23T15:08:27.445Z,110.90
2023-02-23T15:11:11.572Z,106.10
2023-02-23T15:13:43.099Z,117.00
2023-02-23T15:16:16.568Z,111.90
2023-02-23T15:18:45.094Z,111.65
2023-02-23T15:21:17.435Z,107.55
2023-02-23T15:23:48.606Z,109.95
2023-02-23T15:26:25.998Z,116.40
2023-02-23T15:28:53.759Z,107.43
2023-02-23T15:31:21.603Z,111.03
2023-02-23T15:33:50.863Z,102.82
2023-02-23T15:36:34.885Z,93.32
2023-02-23T15:39:06.266Z,108.67
2023-02-23T15:41:38.456Z,108.13
2023-02-23T15:44:12.102Z,101.47
2023-02-23T15:46:41.836Z,107.93
2023-02-23T15:49:13.396Z,103.63
2023-02-23T15:51:49.099Z,111.78
2023-02-23T15:54:42.949Z,109.40
2023-02-23T15:57:27.053Z,104.75
2023-02-23T15:59:58.907Z,109.00
2023-02-23T16:02:26.530Z,99.40
2023-02-23T16:04:54.096Z,101.53
2023-02-23T16:07:24.671Z,97.90
2023-02-23T16:10:27.990Z,96.70
2023-02-23T16:12:55.607Z,102.72
2023-02-23T16:15:29.691Z,97.60
2023-02-23T16:18:01.414Z,95.20
2023-02-23T16:20:45.958Z,98.88
2023-02-23T16:23:33.366Z,97.90
2023-02-23T16:30:43.409Z,103.68
2023-02-23T16:33:13.198Z,94.32
2023-02-23T16:35:51.923Z,96.90
2023-02-23T16:38:26.882Z,95.10
2023-02-23T16:40:54.758Z,108.60
2023-02-23T16:43:22.421Z,95.28
2023-02-23T16:45:50.164Z,95.10
2023-02-23T16:48:18.947Z,89.50
2023-02-23T16:50:48.014Z,107.57
2023-02-23T16:53:16.977Z,94.53
2023-02-23T16:55:54.184Z,95.15
2023-02-23T16:58:24.822Z,92.63
2023-02-23T17:00:53.812Z,102.03
2023-02-23T17:03:27.508Z,100.38
2023-02-23T17:05:55.065Z,97.37
2023-02-23T17:08:24.632Z,97.65
2023-02-23T17:10:55.563Z,112.13
2023-02-23T17:13:27.605Z,103.50
2023-02-23T17:15:56.521Z,106.15
2023-02-23T17:18:26.840Z,109.95
2023-02-23T17:21:00.988Z,112.65
2023-02-23T17:23:39.121Z,109.93
2023-02-23T17:26:08.710Z,112.47
2023-02-23T17:28:36.803Z,110.22
2023-02-23T17:31:05.493Z,111.18
2023-02-23T17:33:33.695Z,111.38
2023-02-23T17:36:06.824Z,110.13
2023-02-23T17:38:34.655Z,107.20
2023-02-23T17:41:04.829Z,113.50
2023-02-23T17:46:32.565Z,114.70
2023-02-23T17:49:00.102Z,105.28
2023-02-23T17:51:27.987Z,109.75
2023-02-23T17:53:55.565Z,109.85
2023-02-23T17:56:31.797Z,108.55
2023-02-23T17:58:59.507Z,98.88
2023-02-23T18:01:27.476Z,115.50
2023-02-23T18:03:58.560Z,118.30
2023-02-23T18:06:26.059Z,113.15
2023-02-23T18:08:53.853Z,110.00
2023-02-23T18:11:21.275Z,101.63
2023-02-23T18:13:51.477Z,106.25
2023-02-23T18:16:19.889Z,110.78
2023-02-23T18:18:49.076Z,103.78
2023-02-23T18:21:23.836Z,116.88
2023-02-23T18:23:51.630Z,108.75
2023-02-23T18:26:25.976Z,109.97
2023-02-23T18:28:57.336Z,116.97
2023-02-23T18:31:30.390Z,102.22
2023-02-23T18:34:01.481Z,105.15
2023-02-23T18:36:38.234Z,107.03
2023-02-23T18:39:07.711Z,108.72
2023-02-23T18:41:35.388Z,108.43
2023-02-23T18:44:05.619Z,100.95
2023-02-23T18:46:33.713Z,112.05
2023-02-23T18:49:01.956Z,114.35
2023-02-23T18:51:29.823Z,103.82
2023-02-23T18:53:57.342Z,107.63
2023-02-23T18:56:28.333Z,105.60
2023-02-23T18:58:59.386Z,112.80
2023-02-23T19:01:30.509Z,113.03
2023-02-23T19:04:01.248Z,100.90
2023-02-23T19:06:30.038Z,117.28
2023-02-23T19:09:00.114Z,101.80
2023-02-23T19:11:30.739Z,115.45
2023-02-23T19:14:01.343Z,118.82
2023-02-23T19:16:33.102Z,113.38
2023-02-23T19:19:02.033Z,100.80
2023-02-23T19:21:29.584Z,104.93
2023-02-23T19:23:57.825Z,109.30
2023-02-23T19:26:26.880Z,98.32
2023-02-23T19:28:54.375Z,103.47
2023-02-23T19:31:26.042Z,113.05
2023-02-23T19:33:56.040Z,114.63
2023-02-23T19:36:29.793Z,108.88
2023-02-23T19:39:06.138Z,112.25
2023-02-23T19:41:34.701Z,113.63
2023-02-23T19:44:02.924Z,110.82
2023-02-23T19:46:30.485Z,109.32
2023-02-23T19:48:58.019Z,112.75
2023-02-23T19:51:25.549Z,110.65
2023-02-23T19:53:54.801Z,113.68
2023-02-23T19:56:24.944Z,120.72
2023-02-23T19:58:52.957Z,118.82
2023-02-23T20:01:23.024Z,114.07
2023-02-23T20:04:01.801Z,128.82
2023-02-23T20:06:32.346Z,116.05
2023-02-23T20:09:00.476Z,119.43
2023-02-23T20:11:30.021Z,118.88
2023-02-23T20:13:57.811Z,117.03
2023-02-23T20:16:29.711Z,121.10
2023-02-23T20:18:58.348Z,132.68
2023-02-23T20:21:30.216Z,125.88
2023-02-23T20:23:58.040Z,128.00
2023-02-23T20:26:34.256Z,125.75
2023-02-23T20:29:03.355Z,110.97
2023-02-23T20:31:37.516Z,120.80
2023-02-23T20:34:08.883Z,123.65
2023-02-23T20:36:36.439Z,120.68
2023-02-23T20:39:05.286Z,125.47
2023-02-23T20:41:33.569Z,120.00
2023-02-23T20:44:04.086Z,126.40
2023-02-23T20:46:32.138Z,112.43
2023-02-23T20:49:05.206Z,132.13
2023-02-23T20:51:33.054Z,129.07
2023-02-23T20:54:00.841Z,122.55
2023-02-23T20:56:43.462Z,121.85
2023-02-23T20:59:16.378Z,127.90
2023-02-23T21:01:45.353Z,131.88
2023-02-23T21:04:13.472Z,115.68
2023-02-23T21:06:44.807Z,116.07
2023-02-23T21:09:21.288Z,116.53
2023-02-23T21:11:50.371Z,117.15
2023-02-23T21:14:22.271Z,119.60
2023-02-23T21:16:52.847Z,110.95
2023-02-23T21:19:24.782Z,121.40
2023-02-23T21:21:58.053Z,124.70
2023-02-23T21:24:26.510Z,121.43
2023-02-23T21:26:57.530Z,126.50
2023-02-23T21:29:26.464Z,106.78
2023-02-23T21:31:54.399Z,109.38
2023-02-23T21:34:29.152Z,104.20
2023-02-23T21:37:02.116Z,118.15
2023-02-23T21:39:31.311Z,103.38
2023-02-23T21:42:30.069Z,114.95
2023-02-23T21:44:48.328Z,112.53
2023-02-23T21:47:21.430Z,126.38
2023-02-23T21:49:53.822Z,111.53
2023-02-23T21:52:31.301Z,120.93
2023-02-23T21:55:05.705Z,113.72
2023-02-23T21:57:35.598Z,121.75
2023-02-23T22:00:04.133Z,119.55
2023-02-23T22:02:48.748Z,117.18
2023-02-23T22:07:59.545Z,120.75
2023-02-23T22:10:30.843Z,124.57
2023-02-23T22:13:05.810Z,126.20
2023-02-23T22:15:37.891Z,128.63
2023-02-23T22:18:05.357Z,124.72
2023-02-23T22:20:32.851Z,125.28
2023-02-23T22:23:00.277Z,129.23
2023-02-23T22:25:31.219Z,123.53
2023-02-23T22:27:58.757Z,134.25
2023-02-23T22:30:28.451Z,129.60
2023-02-23T22:32:59.112Z,128.40
2023-02-23T22:35:29.168Z,139.68
2023-02-23T22:37:56.602Z,130.30
2023-02-23T22:40:24.382Z,126.00
2023-02-23T22:42:52.388Z,119.13
2023-02-23T22:45:20.405Z,121.35
2023-02-23T22:47:47.966Z,131.27
2023-02-23T22:50:19.335Z,127.70
2023-02-23T22:52:47.090Z,128.48
2023-02-23T22:55:14.739Z,128.68
2023-02-23T22:57:42.480Z,139.25
2023-02-23T23:00:10.713Z,137.27
2023-02-23T23:02:38.516Z,141.10
2023-02-23T23:05:06.817Z,138.52
2023-02-23T23:07:34.494Z,132.02
2023-02-23T23:10:05.816Z,137.35
2023-02-23T23:12:34.503Z,138.23
2023-02-23T23:15:07.277Z,129.18
2023-02-23T23:17:36.089Z,145.50
2023-02-23T23:20:11.790Z,131.60
2023-02-23T23:22:39.462Z,143.75
2023-02-23T23:25:14.791Z,142.68
2023-02-23T23:27:44.982Z,139.20
2023-02-23T23:30:13.458Z,132.55
2023-02-23T23:32:41.471Z,139.82
2023-02-23T23:35:13.684Z,136.25
2023-02-23T23:37:42.493Z,140.07
2023-02-23T23:40:14.758Z,133.25
2023-02-23T23:42:46.207Z,132.48
2023-02-23T23:45:16.356Z,130.98
2023-02-23T23:47:47.622Z,129.77
2023-02-23T23:50:17.959Z,136.93
2023-02-23T23:52:50.943Z,132.27
2023-02-23T23:55:19.333Z,134.90
2023-02-23T23:57:46.978Z,138.18
